sensor_id;sensor_type;location;lat;lon;timestamp;pressure;altitude;pressure_sealevel;temperature;humidity
71361;BME280;59166;48.908;1.870;2023-05-02T00:04:28;100944.34;;;9.23;100.00
71361;BME280;59166;48.908;1.870;2023-05-02T00:09:29;100934.97;;;9.14;100.00
71361;BME280;59166;48.908;1.870;2023-05-02T00:14:30;100948.09;;;9.11;100.00
71361;BME280;59166;48.908;1.870;2023-05-02T00:19:37;100943.66;;;9.05;100.00
71361;BME280;59166;48.908;1.870;2023-05-02T00:24:38;100937.44;;;9.04;100.00
71361;BME280;59166;48.908;1.870;2023-05-02T00:29:39;100931.44;;;9.02;100.00
71361;BME280;59166;48.908;1.870;2023-05-02T00:34:41;100930.88;;;9.00;100.00
71361;BME280;59166;48.908;1.870;2023-05-02T00:39:42;100932.97;;;8.98;100.00
71361;BME280;59166;48.908;1.870;2023-05-02T00:44:43;100937.22;;;8.94;100.00
71361;BME280;59166;48.908;1.870;2023-05-02T00:49:45;100935.22;;;8.90;100.00
71361;BME280;59166;48.908;1.870;2023-05-02T00:54:46;100935.88;;;8.85;100.00
71361;BME280;59166;48.908;1.870;2023-05-02T00:59:47;100937.63;;;8.79;100.00
71361;BME280;59166;48.908;1.870;2023-05-02T01:04:59;100941.47;;;8.72;100.00
71361;BME280;59166;48.908;1.870;2023-05-02T01:10:18;100943.13;;;8.73;100.00
71361;BME280;59166;48.908;1.870;2023-05-02T01:15:32;100944.63;;;8.69;100.00
71361;BME280;59166;48.908;1.870;2023-05-02T01:20:38;100933.97;;;8.62;100.00
71361;BME280;59166;48.908;1.870;2023-05-02T01:25:52;100926.94;;;8.61;100.00
71361;BME280;59166;48.908;1.870;2023-05-02T01:30:57;100930.34;;;8.57;100.00
71361;BME280;59166;48.908;1.870;2023-05-02T01:36:00;100924.34;;;8.55;100.00
71361;BME280;59166;48.908;1.870;2023-05-02T01:41:03;100920.84;;;8.43;100.00
71361;BME280;59166;48.908;1.870;2023-05-02T01:46:08;100928.91;;;8.43;100.00
71361;BME280;59166;48.908;1.870;2023-05-02T01:51:11;100931.03;;;8.41;100.00
71361;BME280;59166;48.908;1.870;2023-05-02T01:56:16;100926.69;;;8.40;100.00
71361;BME280;59166;48.908;1.870;2023-05-02T02:01:20;100926.41;;;8.29;100.00
71361;BME280;59166;48.908;1.870;2023-05-02T02:06:22;100934.34;;;8.24;100.00
71361;BME280;59166;48.908;1.870;2023-05-02T02:11:26;100935.28;;;8.18;100.00
71361;BME280;59166;48.908;1.870;2023-05-02T02:16:33;100918.19;;;8.13;100.00
71361;BME280;59166;48.908;1.870;2023-05-02T02:21:36;100934.53;;;8.11;100.00
71361;BME280;59166;48.908;1.870;2023-05-02T02:26:39;100937.94;;;8.07;100.00
71361;BME280;59166;48.908;1.870;2023-05-02T02:31:42;100937.22;;;8.00;100.00
71361;BME280;59166;48.908;1.870;2023-05-02T02:36:45;100945.13;;;7.95;100.00
71361;BME280;59166;48.908;1.870;2023-05-02T02:41:52;100941.69;;;7.88;100.00
71361;BME280;59166;48.908;1.870;2023-05-02T02:47:17;100950.09;;;7.79;100.00
71361;BME280;59166;48.908;1.870;2023-05-02T02:52:43;100954.19;;;7.82;100.00
71361;BME280;59166;48.908;1.870;2023-05-02T03:03:27;100935.66;;;7.74;100.00
71361;BME280;59166;48.908;1.870;2023-05-02T03:08:38;100957.63;;;7.71;100.00
71361;BME280;59166;48.908;1.870;2023-05-02T03:13:39;100961.69;;;7.62;100.00
71361;BME280;59166;48.908;1.870;2023-05-02T03:18:41;100967.81;;;7.51;100.00
71361;BME280;59166;48.908;1.870;2023-05-02T03:23:42;100973.03;;;7.46;100.00
71361;BME280;59166;48.908;1.870;2023-05-02T03:28:43;100957.56;;;7.41;100.00
71361;BME280;59166;48.908;1.870;2023-05-02T03:33:45;100963.84;;;7.35;100.00
71361;BME280;59166;48.908;1.870;2023-05-02T03:38:46;100975.50;;;7.29;100.00
71361;BME280;59166;48.908;1.870;2023-05-02T03:43:47;100965.41;;;7.24;100.00
71361;BME280;59166;48.908;1.870;2023-05-02T03:48:50;100981.16;;;7.21;100.00
71361;BME280;59166;48.908;1.870;2023-05-02T03:53:51;100978.28;;;7.16;100.00
71361;BME280;59166;48.908;1.870;2023-05-02T03:58:51;100986.78;;;7.13;100.00
71361;BME280;59166;48.908;1.870;2023-05-02T04:03:54;100983.13;;;7.07;100.00
71361;BME280;59166;48.908;1.870;2023-05-02T04:08:54;100987.34;;;6.97;100.00
71361;BME280;59166;48.908;1.870;2023-05-02T04:13:55;100993.00;;;6.89;100.00
71361;BME280;59166;48.908;1.870;2023-05-02T04:18:58;100990.75;;;6.86;100.00
71361;BME280;59166;48.908;1.870;2023-05-02T04:23:58;100992.66;;;6.78;100.00
71361;BME280;59166;48.908;1.870;2023-05-02T04:28:59;101008.56;;;6.80;100.00
71361;BME280;59166;48.908;1.870;2023-05-02T04:34:02;101013.94;;;6.80;100.00
71361;BME280;59166;48.908;1.870;2023-05-02T04:39:03;101020.72;;;6.83;100.00
71361;BME280;59166;48.908;1.870;2023-05-02T04:44:04;101019.50;;;6.85;100.00
71361;BME280;59166;48.908;1.870;2023-05-02T04:49:06;101014.28;;;6.90;100.00
71361;BME280;59166;48.908;1.870;2023-05-02T04:54:07;101026.22;;;6.94;100.00
71361;BME280;59166;48.908;1.870;2023-05-02T04:59:08;101035.06;;;7.01;100.00
71361;BME280;59166;48.908;1.870;2023-05-02T05:04:10;101032.31;;;7.08;100.00
71361;BME280;59166;48.908;1.870;2023-05-02T05:09:11;101034.31;;;7.12;100.00
71361;BME280;59166;48.908;1.870;2023-05-02T05:14:12;101048.75;;;7.18;100.00
71361;BME280;59166;48.908;1.870;2023-05-02T05:19:14;101043.28;;;7.31;100.00
71361;BME280;59166;48.908;1.870;2023-05-02T05:24:15;101055.75;;;7.44;100.00
71361;BME280;59166;48.908;1.870;2023-05-02T05:29:16;101060.03;;;7.26;100.00
71361;BME280;59166;48.908;1.870;2023-05-02T05:34:18;101068.03;;;7.33;100.00
71361;BME280;59166;48.908;1.870;2023-05-02T05:39:19;101064.66;;;7.44;100.00
71361;BME280;59166;48.908;1.870;2023-05-02T05:44:20;101073.84;;;7.55;100.00
71361;BME280;59166;48.908;1.870;2023-05-02T05:49:22;101081.41;;;7.64;100.00
71361;BME280;59166;48.908;1.870;2023-05-02T05:54:23;101090.03;;;7.73;100.00
71361;BME280;59166;48.908;1.870;2023-05-02T05:59:24;101099.44;;;7.82;100.00
71361;BME280;59166;48.908;1.870;2023-05-02T06:04:26;101092.44;;;7.99;100.00
71361;BME280;59166;48.908;1.870;2023-05-02T06:09:27;101109.81;;;8.15;100.00
71361;BME280;59166;48.908;1.870;2023-05-02T06:14:27;101106.22;;;8.21;100.00
71361;BME280;59166;48.908;1.870;2023-05-02T06:19:30;101115.44;;;8.31;100.00
71361;BME280;59166;48.908;1.870;2023-05-02T06:24:30;101117.81;;;8.40;100.00
71361;BME280;59166;48.908;1.870;2023-05-02T06:29:31;101123.78;;;8.42;100.00
71361;BME280;59166;48.908;1.870;2023-05-02T06:34:34;101124.72;;;8.65;100.00
71361;BME280;59166;48.908;1.870;2023-05-02T06:39:35;101122.78;;;9.02;100.00
71361;BME280;59166;48.908;1.870;2023-05-02T06:44:38;101127.03;;;9.10;100.00
71361;BME280;59166;48.908;1.870;2023-05-02T06:49:40;101135.13;;;9.10;100.00
71361;BME280;59166;48.908;1.870;2023-05-02T06:54:41;101136.25;;;9.02;100.00
71361;BME280;59166;48.908;1.870;2023-05-02T06:59:42;101145.47;;;9.24;100.00
71361;BME280;59166;48.908;1.870;2023-05-02T07:04:45;101146.09;;;9.38;100.00
71361;BME280;59166;48.908;1.870;2023-05-02T07:09:46;101154.66;;;9.47;100.00
71361;BME280;59166;48.908;1.870;2023-05-02T07:14:48;101149.19;;;9.65;100.00
71361;BME280;59166;48.908;1.870;2023-05-02T07:19:52;101145.78;;;9.81;100.00
71361;BME280;59166;48.908;1.870;2023-05-02T07:24:57;101150.00;;;10.00;100.00
71361;BME280;59166;48.908;1.870;2023-05-02T07:29:58;101153.88;;;10.16;100.00
71361;BME280;59166;48.908;1.870;2023-05-02T07:35:00;101152.66;;;10.23;100.00
71361;BME280;59166;48.908;1.870;2023-05-02T07:40:01;101160.41;;;10.43;100.00
71361;BME280;59166;48.908;1.870;2023-05-02T07:45:03;101156.47;;;10.51;100.00
71361;BME280;59166;48.908;1.870;2023-05-02T07:50:06;101164.91;;;10.66;100.00
71361;BME280;59166;48.908;1.870;2023-05-02T07:55:08;101167.91;;;10.93;100.00
71361;BME280;59166;48.908;1.870;2023-05-02T08:00:10;101176.91;;;10.98;100.00
71361;BME280;59166;48.908;1.870;2023-05-02T08:05:12;101166.47;;;11.18;100.00
71361;BME280;59166;48.908;1.870;2023-05-02T08:10:13;101174.34;;;11.20;100.00
71361;BME280;59166;48.908;1.870;2023-05-02T08:20:54;101185.78;;;11.72;100.00
71361;BME280;59166;48.908;1.870;2023-05-02T08:25:56;101192.56;;;12.24;100.00
71361;BME280;59166;48.908;1.870;2023-05-02T08:30:57;101194.00;;;12.92;100.00
71361;BME280;59166;48.908;1.870;2023-05-02T08:35:59;101192.22;;;13.56;100.00
71361;BME280;59166;48.908;1.870;2023-05-02T08:41:00;101200.72;;;14.43;96.51
71361;BME280;59166;48.908;1.870;2023-05-02T08:46:04;101203.28;;;15.42;89.79
71361;BME280;59166;48.908;1.870;2023-05-02T08:51:09;101211.19;;;15.69;87.29
71361;BME280;59166;48.908;1.870;2023-05-02T08:56:11;101204.41;;;16.17;84.88
71361;BME280;59166;48.908;1.870;2023-05-02T09:01:14;101198.91;;;16.27;77.33
71361;BME280;59166;48.908;1.870;2023-05-02T09:06:18;101204.63;;;16.26;78.69
71361;BME280;59166;48.908;1.870;2023-05-02T09:11:19;101220.53;;;16.88;74.23
71361;BME280;59166;48.908;1.870;2023-05-02T09:16:22;101217.97;;;17.17;73.82
71361;BME280;59166;48.908;1.870;2023-05-02T09:21:25;101215.03;;;17.47;75.83
71361;BME280;59166;48.908;1.870;2023-05-02T09:26:27;101217.75;;;17.52;71.55
71361;BME280;59166;48.908;1.870;2023-05-02T09:31:30;101215.50;;;17.93;72.92
71361;BME280;59166;48.908;1.870;2023-05-02T09:36:39;101228.47;;;17.77;69.75
71361;BME280;59166;48.908;1.870;2023-05-02T09:41:40;101221.81;;;17.93;69.41
71361;BME280;59166;48.908;1.870;2023-05-02T09:46:42;101231.38;;;17.91;64.82
71361;BME280;59166;48.908;1.870;2023-05-02T09:51:45;101231.38;;;17.91;63.83
71361;BME280;59166;48.908;1.870;2023-05-02T09:56:54;101227.94;;;17.36;62.76
71361;BME280;59166;48.908;1.870;2023-05-02T10:01:56;101225.47;;;17.40;66.26
71361;BME280;59166;48.908;1.870;2023-05-02T10:06:59;101221.56;;;17.51;70.49
71361;BME280;59166;48.908;1.870;2023-05-02T10:12:02;101235.28;;;17.46;66.17
71361;BME280;59166;48.908;1.870;2023-05-02T10:17:06;101229.31;;;17.34;68.41
71361;BME280;59166;48.908;1.870;2023-05-02T10:22:15;101224.22;;;17.61;66.78
71361;BME280;59166;48.908;1.870;2023-05-02T10:27:18;101235.47;;;17.55;65.64
71361;BME280;59166;48.908;1.870;2023-05-02T10:32:21;101230.75;;;17.65;65.01
71361;BME280;59166;48.908;1.870;2023-05-02T10:37:24;101226.69;;;17.96;65.46
71361;BME280;59166;48.908;1.870;2023-05-02T10:42:26;101227.03;;;17.90;63.26
71361;BME280;59166;48.908;1.870;2023-05-02T10:47:28;101219.66;;;18.19;65.04
71361;BME280;59166;48.908;1.870;2023-05-02T10:52:32;101221.88;;;18.88;64.51
71361;BME280;59166;48.908;1.870;2023-05-02T10:57:33;101228.50;;;18.64;59.69
71361;BME280;59166;48.908;1.870;2023-05-02T11:02:55;101219.84;;;18.28;64.90
71361;BME280;59166;48.908;1.870;2023-05-02T11:08:31;101220.81;;;18.08;64.34
71361;BME280;59166;48.908;1.870;2023-05-02T11:13:47;101224.06;;;18.68;63.83
71361;BME280;59166;48.908;1.870;2023-05-02T11:18:57;101214.31;;;19.04;61.49
71361;BME280;59166;48.908;1.870;2023-05-02T11:29:53;101218.63;;;19.47;63.35
71361;BME280;59166;48.908;1.870;2023-05-02T11:34:54;101227.75;;;19.43;60.59
71361;BME280;59166;48.908;1.870;2023-05-02T11:40:09;101223.91;;;19.95;57.06
71361;BME280;59166;48.908;1.870;2023-05-02T11:45:12;101224.41;;;19.65;56.73
71361;BME280;59166;48.908;1.870;2023-05-02T11:50:13;101227.53;;;19.90;61.09
71361;BME280;59166;48.908;1.870;2023-05-02T11:55:14;101240.75;;;19.88;61.75
71361;BME280;59166;48.908;1.870;2023-05-02T12:00:26;101243.44;;;20.26;58.72
71361;BME280;59166;48.908;1.870;2023-05-02T12:05:28;101238.19;;;20.57;53.44
71361;BME280;59166;48.908;1.870;2023-05-02T12:10:35;101243.28;;;20.77;57.94
71361;BME280;59166;48.908;1.870;2023-05-02T12:15:38;101237.97;;;20.39;54.47
71361;BME280;59166;48.908;1.870;2023-05-02T12:20:39;101250.44;;;20.32;56.11
71361;BME280;59166;48.908;1.870;2023-05-02T12:25:41;101262.91;;;20.70;51.95
71361;BME280;59166;48.908;1.870;2023-05-02T12:30:46;101274.09;;;19.77;55.06
71361;BME280;59166;48.908;1.870;2023-05-02T12:35:49;101267.50;;;18.98;59.71
71361;BME280;59166;48.908;1.870;2023-05-02T12:40:52;101278.31;;;19.88;58.12
71361;BME280;59166;48.908;1.870;2023-05-02T12:46:11;101284.16;;;20.19;53.99
71361;BME280;59166;48.908;1.870;2023-05-02T12:51:21;101277.28;;;19.46;57.17
71361;BME280;59166;48.908;1.870;2023-05-02T12:56:22;101280.47;;;19.54;54.60
71361;BME280;59166;48.908;1.870;2023-05-02T13:01:31;101282.56;;;20.31;53.18
71361;BME280;59166;48.908;1.870;2023-05-02T13:06:32;101290.03;;;20.72;52.82
71361;BME280;59166;48.908;1.870;2023-05-02T13:11:37;101278.03;;;20.08;54.47
71361;BME280;59166;48.908;1.870;2023-05-02T13:16:40;101294.94;;;19.78;55.91
71361;BME280;59166;48.908;1.870;2023-05-02T13:21:41;101287.47;;;20.48;53.29
71361;BME280;59166;48.908;1.870;2023-05-02T13:26:41;101284.03;;;20.56;53.18
71361;BME280;59166;48.908;1.870;2023-05-02T13:31:44;101287.72;;;20.79;53.94
71361;BME280;59166;48.908;1.870;2023-05-02T13:36:44;101297.00;;;21.10;55.57
71361;BME280;59166;48.908;1.870;2023-05-02T13:41:45;101298.25;;;20.90;53.67
71361;BME280;59166;48.908;1.870;2023-05-02T13:46:48;101287.88;;;20.87;54.06
71361;BME280;59166;48.908;1.870;2023-05-02T13:51:50;101290.78;;;20.77;55.46
71361;BME280;59166;48.908;1.870;2023-05-02T13:56:51;101289.50;;;20.10;55.91
71361;BME280;59166;48.908;1.870;2023-05-02T14:01:56;101277.53;;;20.52;54.19
71361;BME280;59166;48.908;1.870;2023-05-02T14:07:07;101279.41;;;20.38;56.05
71361;BME280;59166;48.908;1.870;2023-05-02T14:12:08;101274.59;;;20.62;54.81
71361;BME280;59166;48.908;1.870;2023-05-02T14:17:11;101273.47;;;20.77;52.88
71361;BME280;59166;48.908;1.870;2023-05-02T14:22:12;101264.88;;;20.97;56.63
71361;BME280;59166;48.908;1.870;2023-05-02T14:27:12;101258.59;;;20.64;53.12
71361;BME280;59166;48.908;1.870;2023-05-02T14:32:15;101250.91;;;20.66;52.78
71361;BME280;59166;48.908;1.870;2023-05-02T14:37:16;101240.84;;;21.03;54.50
71361;BME280;59166;48.908;1.870;2023-05-02T14:42:17;101238.13;;;19.97;54.45
71361;BME280;59166;48.908;1.870;2023-05-02T14:47:19;101237.69;;;19.39;57.89
71361;BME280;59166;48.908;1.870;2023-05-02T14:52:20;101225.22;;;20.16;54.23
71361;BME280;59166;48.908;1.870;2023-05-02T14:57:21;101221.06;;;20.32;53.06
71361;BME280;59166;48.908;1.870;2023-05-02T15:02:24;101217.56;;;19.81;55.43
71361;BME280;59166;48.908;1.870;2023-05-02T15:07:25;101214.75;;;19.86;52.35
71361;BME280;59166;48.908;1.870;2023-05-02T15:12:26;101216.09;;;20.34;53.41
71361;BME280;59166;48.908;1.870;2023-05-02T15:17:28;101215.06;;;20.85;53.11
71361;BME280;59166;48.908;1.870;2023-05-02T15:22:29;101215.88;;;20.31;53.19
71361;BME280;59166;48.908;1.870;2023-05-02T15:27:30;101209.47;;;19.38;55.13
71361;BME280;59166;48.908;1.870;2023-05-02T15:32:32;101205.66;;;20.50;51.89
71361;BME280;59166;48.908;1.870;2023-05-02T15:37:33;101212.03;;;20.59;51.61
71361;BME280;59166;48.908;1.870;2023-05-02T15:42:35;101211.66;;;20.93;49.29
71361;BME280;59166;48.908;1.870;2023-05-02T15:47:37;101218.09;;;19.96;50.90
71361;BME280;59166;48.908;1.870;2023-05-02T15:52:38;101215.44;;;19.40;50.99
71361;BME280;59166;48.908;1.870;2023-05-02T15:57:39;101207.41;;;18.88;52.65
71361;BME280;59166;48.908;1.870;2023-05-02T16:02:42;101199.16;;;19.49;53.86
71361;BME280;59166;48.908;1.870;2023-05-02T16:07:42;101198.59;;;20.58;51.74
71361;BME280;59166;48.908;1.870;2023-05-02T16:12:43;101194.66;;;20.77;48.75
71361;BME280;59166;48.908;1.870;2023-05-02T16:17:46;101187.81;;;20.75;48.49
71361;BME280;59166;48.908;1.870;2023-05-02T16:22:47;101171.03;;;19.76;51.78
71361;BME280;59166;48.908;1.870;2023-05-02T16:27:49;101165.16;;;20.15;50.51
71361;BME280;59166;48.908;1.870;2023-05-02T16:32:51;101176.97;;;20.29;48.12
71361;BME280;59166;48.908;1.870;2023-05-02T16:37:55;101180.75;;;20.46;48.73
71361;BME280;59166;48.908;1.870;2023-05-02T16:43:02;101185.41;;;20.60;49.19
71361;BME280;59166;48.908;1.870;2023-05-02T16:48:15;101183.56;;;20.69;49.11
71361;BME280;59166;48.908;1.870;2023-05-02T16:53:30;101176.44;;;20.68;47.99
71361;BME280;59166;48.908;1.870;2023-05-02T16:58:46;101166.38;;;19.90;49.43
71361;BME280;59166;48.908;1.870;2023-05-02T17:03:49;101174.81;;;19.10;51.56
71361;BME280;59166;48.908;1.870;2023-05-02T17:08:49;101181.38;;;18.67;53.72
71361;BME280;59166;48.908;1.870;2023-05-02T17:13:52;101179.84;;;18.79;52.58
71361;BME280;59166;48.908;1.870;2023-05-02T17:19:04;101180.63;;;18.61;53.36
71361;BME280;59166;48.908;1.870;2023-05-02T17:24:05;101185.22;;;18.18;56.12
71361;BME280;59166;48.908;1.870;2023-05-02T17:29:07;101188.66;;;18.00;57.03
71361;BME280;59166;48.908;1.870;2023-05-02T17:34:10;101178.94;;;17.84;58.16
71361;BME280;59166;48.908;1.870;2023-05-02T17:39:11;101178.34;;;18.21;55.91
71361;BME280;59166;48.908;1.870;2023-05-02T17:44:12;101181.88;;;18.21;54.48
71361;BME280;59166;48.908;1.870;2023-05-02T17:49:14;101181.28;;;18.29;55.17
71361;BME280;59166;48.908;1.870;2023-05-02T17:54:16;101185.34;;;18.32;55.19
71361;BME280;59166;48.908;1.870;2023-05-02T17:59:17;101180.09;;;18.35;55.41
71361;BME280;59166;48.908;1.870;2023-05-02T18:04:19;101190.09;;;18.21;55.29
71361;BME280;59166;48.908;1.870;2023-05-02T18:09:22;101188.31;;;18.07;55.53
71361;BME280;59166;48.908;1.870;2023-05-02T18:14:23;101196.16;;;17.84;55.64
71361;BME280;59166;48.908;1.870;2023-05-02T18:19:25;101204.75;;;17.73;55.50
71361;BME280;59166;48.908;1.870;2023-05-02T18:24:26;101195.00;;;17.57;55.26
71361;BME280;59166;48.908;1.870;2023-05-02T18:29:27;101194.69;;;17.29;56.80
71361;BME280;59166;48.908;1.870;2023-05-02T18:34:31;101191.72;;;17.21;57.59
71361;BME280;59166;48.908;1.870;2023-05-02T18:39:33;101212.22;;;17.13;57.29
71361;BME280;59166;48.908;1.870;2023-05-02T18:44:34;101201.44;;;16.88;58.44
71361;BME280;59166;48.908;1.870;2023-05-02T18:49:37;101216.25;;;16.72;60.02
71361;BME280;59166;48.908;1.870;2023-05-02T18:54:37;101220.09;;;16.61;60.42
71361;BME280;59166;48.908;1.870;2023-05-02T18:59:38;101213.06;;;16.44;60.21
71361;BME280;59166;48.908;1.870;2023-05-02T19:04:41;101217.72;;;16.34;62.52
71361;BME280;59166;48.908;1.870;2023-05-02T19:09:50;101218.00;;;16.07;61.98
71361;BME280;59166;48.908;1.870;2023-05-02T19:14:56;101213.66;;;15.86;63.32
71361;BME280;59166;48.908;1.870;2023-05-02T19:20:02;101218.28;;;15.70;63.94
71361;BME280;59166;48.908;1.870;2023-05-02T19:25:03;101228.34;;;15.60;64.61
71361;BME280;59166;48.908;1.870;2023-05-02T19:30:10;101231.63;;;15.47;65.68
71361;BME280;59166;48.908;1.870;2023-05-02T19:35:27;101228.88;;;15.41;66.34
71361;BME280;59166;48.908;1.870;2023-05-02T19:40:35;101232.09;;;15.23;66.95
71361;BME280;59166;48.908;1.870;2023-05-02T19:45:36;101230.97;;;15.14;67.85
71361;BME280;59166;48.908;1.870;2023-05-02T19:50:47;101227.69;;;15.07;68.02
71361;BME280;59166;48.908;1.870;2023-05-02T19:55:53;101236.38;;;14.99;68.56
71361;BME280;59166;48.908;1.870;2023-05-02T20:00:58;101244.81;;;14.98;69.01
71361;BME280;59166;48.908;1.870;2023-05-02T20:06:00;101247.44;;;14.82;69.44
71361;BME280;59166;48.908;1.870;2023-05-02T20:11:02;101247.69;;;14.76;69.33
71361;BME280;59166;48.908;1.870;2023-05-02T20:16:03;101252.53;;;14.69;69.11
71361;BME280;59166;48.908;1.870;2023-05-02T20:21:06;101251.13;;;14.61;69.49
71361;BME280;59166;48.908;1.870;2023-05-02T20:26:07;101265.50;;;14.52;69.47
71361;BME280;59166;48.908;1.870;2023-05-02T20:31:08;101271.16;;;14.45;69.68
71361;BME280;59166;48.908;1.870;2023-05-02T20:36:14;101276.25;;;14.31;70.46
71361;BME280;59166;48.908;1.870;2023-05-02T20:41:15;101283.53;;;14.26;70.87
71361;BME280;59166;48.908;1.870;2023-05-02T20:46:19;101281.78;;;14.10;71.59
71361;BME280;59166;48.908;1.870;2023-05-02T20:51:22;101268.41;;;14.03;71.26
71361;BME280;59166;48.908;1.870;2023-05-02T20:56:24;101272.69;;;13.94;71.82
71361;BME280;59166;48.908;1.870;2023-05-02T21:01:25;101271.00;;;13.88;71.98
71361;BME280;59166;48.908;1.870;2023-05-02T21:06:28;101269.81;;;13.79;72.18
71361;BME280;59166;48.908;1.870;2023-05-02T21:11:29;101278.69;;;13.69;72.80
71361;BME280;59166;48.908;1.870;2023-05-02T21:16:30;101282.72;;;13.67;72.73
71361;BME280;59166;48.908;1.870;2023-05-02T21:21:34;101282.09;;;13.60;73.24
71361;BME280;59166;48.908;1.870;2023-05-02T21:26:35;101291.84;;;13.56;73.10
71361;BME280;59166;48.908;1.870;2023-05-02T21:31:39;101292.44;;;13.36;74.77
71361;BME280;59166;48.908;1.870;2023-05-02T21:36:42;101285.03;;;13.31;74.91
71361;BME280;59166;48.908;1.870;2023-05-02T21:41:44;101288.22;;;13.23;75.17
71361;BME280;59166;48.908;1.870;2023-05-02T21:46:46;101294.16;;;13.20;75.29
71361;BME280;59166;48.908;1.870;2023-05-02T21:51:49;101288.16;;;13.18;75.83
71361;BME280;59166;48.908;1.870;2023-05-02T21:56:52;101286.69;;;13.11;76.13
71361;BME280;59166;48.908;1.870;2023-05-02T22:01:59;101287.72;;;13.05;76.34
71361;BME280;59166;48.908;1.870;2023-05-02T22:07:04;101279.13;;;12.91;76.48
71361;BME280;59166;48.908;1.870;2023-05-02T22:12:07;101285.66;;;12.90;76.08
71361;BME280;59166;48.908;1.870;2023-05-02T22:22:25;101283.38;;;12.82;75.87
71361;BME280;59166;48.908;1.870;2023-05-02T22:27:26;101278.94;;;12.76;76.54
71361;BME280;59166;48.908;1.870;2023-05-02T22:32:27;101281.25;;;12.67;76.65
71361;BME280;59166;48.908;1.870;2023-05-02T22:37:30;101278.16;;;12.59;76.05
71361;BME280;59166;48.908;1.870;2023-05-02T22:42:31;101264.47;;;12.49;76.31
71361;BME280;59166;48.908;1.870;2023-05-02T22:47:34;101265.81;;;12.46;75.75
71361;BME280;59166;48.908;1.870;2023-05-02T22:52:37;101264.31;;;12.38;76.29
71361;BME280;59166;48.908;1.870;2023-05-02T22:57:39;101258.81;;;12.33;76.08
71361;BME280;59166;48.908;1.870;2023-05-02T23:02:40;101248.63;;;12.24;76.92
71361;BME280;59166;48.908;1.870;2023-05-02T23:07:45;101233.09;;;12.19;76.88
71361;BME280;59166;48.908;1.870;2023-05-02T23:12:46;101234.28;;;12.07;77.20
71361;BME280;59166;48.908;1.870;2023-05-02T23:17:47;101226.41;;;12.05;76.56
71361;BME280;59166;48.908;1.870;2023-05-02T23:22:49;101208.50;;;12.04;76.17
71361;BME280;59166;48.908;1.870;2023-05-02T23:27:50;101207.63;;;11.99;76.42
71361;BME280;59166;48.908;1.870;2023-05-02T23:32:51;101210.97;;;11.89;76.17
71361;BME280;59166;48.908;1.870;2023-05-02T23:37:53;101197.38;;;11.84;75.76
71361;BME280;59166;48.908;1.870;2023-05-02T23:42:54;101203.28;;;11.81;74.48
71361;BME280;59166;48.908;1.870;2023-05-02T23:47:55;101204.34;;;11.80;73.84
71361;BME280;59166;48.908;1.870;2023-05-02T23:52:57;101196.72;;;11.77;73.90
71361;BME280;59166;48.908;1.870;2023-05-02T23:57:58;101203.13;;;11.71;74.52
